Time;durP1;ratioP1;P1;durP2;ratioP2;P2;SDS_P1;SDS_P2;PMS_P1;PMS_P2;Temp;Humidity;BMP_temperature;BMP_pressure;BME280_temperature;BME280_humidity;BME280_pressure;Samples;Min_cycle;Max_cycle;Signal;HPM_P1;HPM_P2
2021/11/10 00:00:23;;;;;;;22.73;14.90;;;4.30;99.90;;;;;;5117523;28;20449;-89
2021/11/10 00:02:56;;;;;;;31.03;18.37;;;4.30;99.90;;;;;;5110377;28;20525;-90
2021/11/10 00:05:25;;;;;;;26.30;18.23;;;4.30;99.90;;;;;;5097968;28;20450;-89
2021/11/10 00:07:59;;;;;;;24.67;17.83;;;4.30;99.90;;;;;;5116719;28;20470;-90
2021/11/10 00:10:32;;;;;;;22.43;17.83;;;4.30;99.90;;;;;;5098952;28;20447;-90
2021/11/10 00:15:48;;;;;;;24.80;16.70;;;4.40;99.90;;;;;;5100030;28;20522;-91
2021/11/10 00:18:18;;;;;;;18.40;15.90;;;4.30;99.90;;;;;;5097637;28;20505;-90
2021/11/10 00:20:46;;;;;;;25.47;17.13;;;4.30;99.90;;;;;;5096206;28;20931;-90
2021/11/10 00:23:19;;;;;;;28.10;14.80;;;4.30;99.90;;;;;;5096322;28;20449;-90
2021/11/10 00:25:50;;;;;;;22.93;15.20;;;4.20;99.90;;;;;;5094994;28;20449;-90
2021/11/10 00:28:20;;;;;;;17.60;15.00;;;4.10;99.90;;;;;;5095060;28;20458;-90
2021/11/10 00:30:51;;;;;;;17.23;13.27;;;4.10;99.90;;;;;;5095529;28;20453;-90
2021/11/10 00:33:23;;;;;;;19.03;14.70;;;4.20;99.90;;;;;;5115181;28;20531;-90
2021/11/10 00:35:51;;;;;;;18.10;13.17;;;4.10;99.90;;;;;;5108085;28;20496;-90
2021/11/10 00:38:22;;;;;;;17.83;13.23;;;4.00;99.90;;;;;;5112675;28;21045;-91
2021/11/10 00:40:49;;;;;;;16.80;13.97;;;4.00;99.90;;;;;;5116220;28;20452;-90
2021/11/10 00:43:17;;;;;;;17.30;13.00;;;4.00;99.90;;;;;;5116676;28;20949;-88
2021/11/10 00:45:52;;;;;;;20.30;15.03;;;3.90;99.90;;;;;;5116693;28;20892;-90
2021/11/10 00:48:28;;;;;;;17.67;14.60;;;3.90;99.90;;;;;;5129759;28;20455;-89
2021/11/10 00:50:58;;;;;;;20.03;16.50;;;3.90;99.90;;;;;;5117026;28;20475;-90
2021/11/10 00:53:27;;;;;;;24.17;15.40;;;3.90;99.90;;;;;;5116094;28;20997;-90
2021/11/10 00:55:57;;;;;;;20.90;15.37;;;3.90;99.90;;;;;;5115273;28;20445;-90
2021/11/10 00:58:25;;;;;;;21.00;14.73;;;3.80;99.90;;;;;;5129286;28;20431;-91
2021/11/10 01:00:54;;;;;;;23.13;13.90;;;3.80;99.90;;;;;;5117567;28;20537;-91
2021/11/10 01:06:06;;;;;;;18.90;16.03;;;3.90;99.90;;;;;;5113743;28;20924;-90
2021/11/10 01:08:42;;;;;;;24.07;16.67;;;3.80;99.90;;;;;;5117236;28;20453;-90
2021/11/10 01:11:13;;;;;;;28.90;16.13;;;3.80;99.90;;;;;;5120055;28;20469;-90
2021/11/10 01:13:41;;;;;;;20.93;18.13;;;3.80;99.90;;;;;;5116673;28;20469;-91
2021/11/10 01:16:12;;;;;;;21.90;14.93;;;3.80;99.90;;;;;;5116289;28;21015;-91
2021/11/10 01:18:42;;;;;;;19.13;15.93;;;3.80;99.90;;;;;;5127356;28;20457;-91
2021/11/10 01:21:10;;;;;;;25.63;17.20;;;3.80;99.90;;;;;;5115279;28;20484;-90
2021/11/10 01:23:40;;;;;;;23.20;16.70;;;3.70;99.90;;;;;;5115278;28;20445;-90
2021/11/10 01:26:10;;;;;;;18.30;14.67;;;3.60;99.90;;;;;;5115871;28;20913;-91
2021/11/10 01:28:37;;;;;;;19.47;15.00;;;3.60;99.90;;;;;;5114740;28;20443;-91
2021/11/10 01:31:07;;;;;;;24.40;17.00;;;3.60;99.90;;;;;;5134508;28;20443;-88
2021/11/10 01:33:41;;;;;;;17.97;15.37;;;3.70;99.90;;;;;;5127518;28;20469;-90
2021/11/10 01:36:10;;;;;;;24.97;16.63;;;3.60;99.90;;;;;;5135658;28;20481;-89
2021/11/10 01:38:42;;;;;;;22.47;19.03;;;3.60;99.90;;;;;;5118521;28;20501;-89
2021/11/10 01:41:09;;;;;;;20.03;16.43;;;3.60;99.90;;;;;;5117986;28;20446;-90
2021/11/10 01:43:37;;;;;;;21.20;16.57;;;3.60;99.90;;;;;;5116868;28;20437;-90
2021/11/10 01:46:11;;;;;;;20.00;16.90;;;3.60;99.90;;;;;;5125767;28;20453;-90
2021/11/10 01:48:44;;;;;;;17.43;15.07;;;3.50;99.90;;;;;;5138294;28;20434;-86
2021/11/10 01:52:05;;;;;;;25.70;17.37;;;3.60;99.90;;;;;;5133896;28;20450;-91
2021/11/10 01:54:35;;;;;;;22.17;16.23;;;3.60;99.90;;;;;;5134816;28;20551;-91
2021/11/10 01:57:05;;;;;;;21.63;16.60;;;3.60;99.90;;;;;;5120669;28;20558;-90
2021/11/10 01:59:35;;;;;;;22.30;17.60;;;3.40;99.90;;;;;;5120374;28;20477;-91
2021/11/10 02:02:06;;;;;;;21.53;17.83;;;3.40;99.90;;;;;;5127092;28;20455;-91
2021/11/10 02:04:36;;;;;;;27.73;18.70;;;3.50;99.90;;;;;;5130061;28;20429;-89
2021/11/10 02:09:52;;;;;;;25.07;18.03;;;3.40;99.90;;;;;;5124892;28;20432;-90
2021/11/10 02:12:24;;;;;;;20.03;16.77;;;3.40;99.90;;;;;;5131182;28;20446;-90
2021/11/10 02:14:56;;;;;;;19.90;17.50;;;3.40;99.90;;;;;;5132818;28;20440;-89
2021/11/10 02:17:24;;;;;;;24.00;17.27;;;3.40;99.90;;;;;;5134748;28;20527;-91
2021/11/10 02:19:57;;;;;;;26.77;17.47;;;3.40;99.90;;;;;;5136451;28;20429;-91
2021/11/10 02:22:26;;;;;;;24.20;18.60;;;3.40;99.90;;;;;;5124405;28;20448;-92
2021/11/10 02:24:56;;;;;;;25.90;17.87;;;3.50;99.90;;;;;;5123962;28;20963;-91
2021/11/10 02:27:32;;;;;;;24.80;18.70;;;3.50;99.90;;;;;;5121081;28;20530;-91
2021/11/10 02:29:59;;;;;;;27.50;18.63;;;3.40;99.90;;;;;;5120186;28;20503;-91
2021/11/10 02:32:27;;;;;;;25.17;18.30;;;3.30;99.90;;;;;;5135846;28;20437;-90
2021/11/10 02:34:57;;;;;;;27.53;18.30;;;3.30;99.90;;;;;;5125928;28;20491;-89
2021/11/10 02:37:35;;;;;;;23.23;18.90;;;3.30;99.90;;;;;;5125808;28;20486;-91
2021/11/10 02:40:07;;;;;;;31.87;20.70;;;3.20;99.90;;;;;;5117929;28;20460;-90
2021/11/10 02:42:35;;;;;;;25.60;18.80;;;3.20;99.90;;;;;;5118811;28;20666;-90
2021/11/10 02:45:03;;;;;;;26.50;18.07;;;3.20;99.90;;;;;;5118899;28;20471;-90
2021/11/10 02:47:30;;;;;;;23.17;17.90;;;3.20;99.90;;;;;;5120460;28;20508;-90
2021/11/10 02:50:00;;;;;;;24.47;18.60;;;3.20;99.90;;;;;;5118165;28;20472;-90
2021/11/10 02:52:32;;;;;;;26.53;18.10;;;3.20;99.90;;;;;;5117984;28;20444;-89
2021/11/10 02:55:02;;;;;;;26.67;18.20;;;3.20;99.90;;;;;;5117643;28;20470;-90
2021/11/10 02:57:33;;;;;;;35.97;18.30;;;3.20;99.90;;;;;;5123844;28;20449;-87
2021/11/10 03:00:03;;;;;;;26.93;18.10;;;3.20;99.90;;;;;;5127395;27;20994;-89
2021/11/10 03:02:32;;;;;;;26.40;17.00;;;3.20;99.90;;;;;;5118114;28;20529;-90
2021/11/10 03:04:59;;;;;;;27.67;17.95;;;3.20;99.90;;;;;;5118626;28;20477;-91
2021/11/10 03:07:29;;;;;;;23.40;18.67;;;3.20;99.90;;;;;;5118395;28;20276;-90
2021/11/10 03:09:57;;;;;;;24.63;18.13;;;3.30;99.90;;;;;;5117329;28;20515;-90
2021/11/10 03:12:24;;;;;;;24.97;19.67;;;3.30;99.90;;;;;;5117724;28;20456;-90
2021/11/10 03:14:51;;;;;;;24.80;18.30;;;3.20;99.90;;;;;;5117016;28;20476;-90
2021/11/10 03:17:21;;;;;;;26.03;19.07;;;3.20;99.90;;;;;;5117393;28;20875;-89
2021/11/10 03:19:49;;;;;;;21.37;16.10;;;3.20;99.90;;;;;;5116965;28;20428;-91
2021/11/10 03:22:17;;;;;;;27.30;18.90;;;3.10;99.90;;;;;;5117506;28;20529;-91
2021/11/10 03:24:45;;;;;;;25.07;17.60;;;3.10;99.90;;;;;;5117370;28;20529;-91
2021/11/10 03:27:13;;;;;;;21.27;17.97;;;3.10;99.90;;;;;;5117670;28;20468;-89
2021/11/10 03:29:42;;;;;;;30.57;20.50;;;3.10;99.90;;;;;;5117599;28;20452;-89
2021/11/10 03:32:11;;;;;;;23.07;19.57;;;3.20;99.90;;;;;;5137757;28;20462;-87
2021/11/10 03:34:41;;;;;;;29.23;19.57;;;3.20;99.90;;;;;;5107669;28;20532;-90
2021/11/10 03:37:10;;;;;;;22.53;19.03;;;3.30;99.90;;;;;;5136851;28;20476;-89
2021/11/10 03:39:40;;;;;;;25.93;19.00;;;3.20;99.90;;;;;;5118563;28;20446;-90
2021/11/10 03:42:11;;;;;;;26.85;18.70;;;3.20;99.90;;;;;;5132031;28;20492;-90
2021/11/10 03:44:41;;;;;;;26.70;18.23;;;3.30;99.90;;;;;;5118662;28;20258;-89
2021/11/10 03:47:08;;;;;;;19.13;17.13;;;3.30;99.90;;;;;;5118006;28;20814;-89
2021/11/10 03:49:38;;;;;;;23.37;17.03;;;3.30;99.90;;;;;;5126764;28;20437;-91
2021/11/10 03:52:08;;;;;;;25.30;18.30;;;3.30;99.90;;;;;;5127337;28;20437;-90
2021/11/10 03:54:36;;;;;;;25.03;17.30;;;3.30;99.90;;;;;;5133777;28;20484;-90
2021/11/10 03:57:03;;;;;;;22.60;19.90;;;3.40;99.90;;;;;;5123436;28;20465;-90
2021/11/10 03:59:33;;;;;;;22.80;15.80;;;3.40;99.90;;;;;;5138186;28;20428;-89
2021/11/10 04:02:03;;;;;;;24.07;17.50;;;3.40;99.90;;;;;;5135883;28;20437;-90
2021/11/10 04:04:32;;;;;;;21.53;17.80;;;3.40;99.90;;;;;;5139528;28;20472;-89
2021/11/10 04:07:01;;;;;;;24.10;16.47;;;3.40;99.90;;;;;;5139063;28;20450;-90
2021/11/10 04:09:33;;;;;;;25.97;18.40;;;3.30;99.90;;;;;;5126019;28;20477;-89
2021/11/10 04:12:00;;;;;;;26.07;18.60;;;3.30;99.90;;;;;;5133265;28;20459;-91
2021/11/10 04:14:37;;;;;;;26.37;17.87;;;3.20;99.90;;;;;;5126482;28;20465;-90
2021/11/10 04:17:09;;;;;;;26.27;18.10;;;3.30;99.90;;;;;;5123049;28;20499;-91
2021/11/10 04:19:38;;;;;;;25.10;18.20;;;3.20;99.90;;;;;;5120107;28;20528;-90
2021/11/10 04:22:08;;;;;;;26.13;20.60;;;3.20;99.90;;;;;;5121034;27;20949;-91
2021/11/10 04:24:38;;;;;;;24.60;19.87;;;3.10;99.90;;;;;;5118681;28;20465;-89
2021/11/10 04:27:05;;;;;;;32.13;19.70;;;3.10;99.90;;;;;;5120207;28;20453;-89
2021/11/10 04:29:39;;;;;;;22.73;18.30;;;3.10;99.90;;;;;;5120927;28;20441;-89
2021/11/10 04:32:07;;;;;;;24.13;18.73;;;3.10;99.90;;;;;;5123557;28;20499;-89
2021/11/10 04:34:36;;;;;;;24.47;18.07;;;3.10;99.90;;;;;;5123008;28;20480;-91
2021/11/10 04:37:10;;;;;;;30.43;20.47;;;3.10;99.90;;;;;;5120151;28;21020;-89
2021/11/10 04:39:37;;;;;;;34.63;20.60;;;3.10;99.90;;;;;;5119657;28;20972;-90
2021/11/10 04:42:05;;;;;;;27.90;19.50;;;3.10;99.90;;;;;;5117539;28;20456;-91
2021/11/10 04:44:41;;;;;;;26.27;20.43;;;3.10;99.90;;;;;;5118695;28;20468;-90
2021/11/10 04:47:10;;;;;;;25.10;19.27;;;3.00;99.90;;;;;;5117030;28;20839;-90
2021/11/10 04:49:37;;;;;;;29.73;19.50;;;3.00;99.90;;;;;;5115917;28;20443;-90
2021/11/10 04:52:09;;;;;;;24.50;18.97;;;3.10;99.90;;;;;;5121229;28;20461;-90
2021/11/10 04:54:39;;;;;;;27.40;19.10;;;3.10;99.90;;;;;;5121397;28;20500;-90
2021/11/10 04:57:12;;;;;;;23.17;19.57;;;3.10;99.90;;;;;;5121963;28;20453;-90
2021/11/10 04:59:42;;;;;;;27.83;18.60;;;3.10;99.90;;;;;;5124526;28;20461;-91
2021/11/10 05:02:26;;;;;;;27.17;19.40;;;3.10;99.90;;;;;;5124348;28;20452;-89
2021/11/10 05:04:55;;;;;;;28.33;21.47;;;3.10;99.90;;;;;;5130959;28;20456;-90
2021/11/10 05:07:23;;;;;;;30.60;21.33;;;3.00;99.90;;;;;;5130076;28;20449;-88
2021/11/10 05:09:51;;;;;;;26.13;18.80;;;3.00;99.90;;;;;;5137347;28;20438;-90
2021/11/10 05:12:22;;;;;;;27.33;19.77;;;2.90;99.90;;;;;;5130639;28;20466;-88
2021/11/10 05:14:56;;;;;;;27.80;20.97;;;2.90;99.90;;;;;;5128306;28;20472;-89
2021/11/10 05:17:30;;;;;;;26.75;20.42;;;2.90;99.90;;;;;;5119625;28;20524;-89
2021/11/10 05:19:57;;;;;;;33.87;23.20;;;2.90;99.90;;;;;;5122722;28;20204;-89
2021/11/10 05:22:28;;;;;;;23.57;19.13;;;2.90;99.90;;;;;;5118482;28;20540;-91
2021/11/10 05:24:55;;;;;;;27.60;20.00;;;2.90;99.90;;;;;;5120603;28;20445;-92
2021/11/10 05:27:22;;;;;;;29.20;21.30;;;2.90;99.90;;;;;;5135894;28;20469;-90
2021/11/10 05:29:52;;;;;;;25.87;21.03;;;2.90;99.90;;;;;;5137818;28;20437;-90
2021/11/10 05:32:22;;;;;;;28.93;21.60;;;2.90;99.90;;;;;;5138460;28;20475;-88
2021/11/10 05:34:58;;;;;;;34.10;19.50;;;2.90;99.90;;;;;;5138081;28;20459;-88
2021/11/10 05:37:25;;;;;;;24.93;21.90;;;2.90;99.90;;;;;;5127696;22;20500;-89
2021/11/10 05:39:52;;;;;;;31.40;22.43;;;2.80;99.90;;;;;;5095119;28;20506;-90
2021/11/10 05:42:19;;;;;;;30.70;21.70;;;2.80;99.90;;;;;;5115108;28;20445;-90
2021/11/10 05:44:46;;;;;;;25.50;18.40;;;2.70;99.90;;;;;;5113783;28;20468;-89
2021/11/10 05:47:15;;;;;;;28.83;20.10;;;2.70;99.90;;;;;;5118389;28;20440;-89
2021/11/10 05:49:42;;;;;;;25.93;20.73;;;2.70;99.90;;;;;;5137583;28;20451;-88
2021/11/10 05:52:09;;;;;;;29.70;20.83;;;2.70;99.90;;;;;;5118701;28;20461;-90
2021/11/10 05:54:38;;;;;;;34.97;21.00;;;2.70;99.90;;;;;;5120025;28;20515;-89
2021/11/10 05:57:06;;;;;;;30.40;20.40;;;2.70;99.90;;;;;;5117695;28;20550;-89
2021/11/10 05:59:33;;;;;;;29.30;20.23;;;2.70;99.90;;;;;;5124068;28;20477;-90
2021/11/10 06:02:00;;;;;;;33.50;21.45;;;2.70;99.90;;;;;;5124711;28;20869;-90
2021/11/10 06:04:29;;;;;;;33.73;20.43;;;2.70;99.90;;;;;;5122455;28;20199;-89
2021/11/10 06:06:56;;;;;;;34.00;21.80;;;2.70;99.90;;;;;;5125344;28;20460;-89
2021/11/10 06:09:22;;;;;;;34.13;21.30;;;2.70;99.90;;;;;;5121760;28;20461;-88
2021/11/10 06:11:50;;;;;;;22.20;18.70;;;2.80;99.90;;;;;;5120724;28;20964;-89
2021/11/10 06:14:17;;;;;;;25.70;19.60;;;2.70;99.90;;;;;;5124001;28;20468;-88
2021/11/10 06:16:43;;;;;;;27.33;19.17;;;2.80;99.90;;;;;;5121449;28;20818;-89
2021/11/10 06:19:10;;;;;;;28.27;20.47;;;2.90;99.90;;;;;;5119073;28;20527;-89
2021/11/10 06:21:38;;;;;;;31.20;20.10;;;2.90;99.90;;;;;;5129634;28;20436;-89
2021/11/10 06:24:05;;;;;;;25.37;19.40;;;2.90;99.90;;;;;;5140530;28;20472;-87
2021/11/10 06:26:32;;;;;;;27.30;19.70;;;2.90;99.90;;;;;;5137282;28;20464;-89
2021/11/10 06:28:58;;;;;;;34.87;20.87;;;2.80;99.90;;;;;;5141765;27;20208;-86
2021/11/10 06:31:25;;;;;;;26.90;20.47;;;2.80;99.90;;;;;;5134495;28;20453;-90
2021/11/10 06:33:52;;;;;;;25.87;19.90;;;2.80;99.90;;;;;;5121325;27;20449;-89
2021/11/10 06:36:18;;;;;;;30.30;19.70;;;2.80;99.90;;;;;;5125872;28;20441;-89
2021/11/10 06:38:46;;;;;;;33.87;19.50;;;2.90;99.90;;;;;;5125519;28;20452;-88
2021/11/10 06:41:18;;;;;;;28.33;19.77;;;2.90;99.90;;;;;;5122278;28;20451;-89
2021/11/10 06:43:59;;;;;;;23.93;20.17;;;2.90;99.90;;;;;;5124187;28;20509;-89
2021/11/10 06:46:25;;;;;;;30.47;20.80;;;3.00;99.90;;;;;;5124967;28;20550;-88
2021/11/10 06:48:52;;;;;;;31.73;19.38;;;3.10;99.90;;;;;;5126804;28;20448;-89
2021/11/10 06:51:19;;;;;;;25.93;19.80;;;3.10;99.90;;;;;;5122858;28;20203;-90
2021/11/10 06:53:47;;;;;;;33.93;20.70;;;3.10;99.90;;;;;;5127588;28;20446;-90
2021/11/10 06:56:14;;;;;;;25.43;20.57;;;3.20;99.90;;;;;;5140088;28;20473;-88
2021/11/10 06:58:41;;;;;;;27.80;20.57;;;3.20;99.90;;;;;;5140993;28;20449;-88
2021/11/10 07:01:08;;;;;;;32.50;18.40;;;3.30;99.90;;;;;;5136275;28;20479;-89
2021/11/10 07:03:36;;;;;;;25.57;18.80;;;3.30;99.90;;;;;;5124197;28;20452;-89
2021/11/10 07:06:02;;;;;;;27.77;19.90;;;3.30;99.90;;;;;;5127925;28;20507;-89
2021/11/10 07:08:29;;;;;;;41.23;21.40;;;3.40;99.90;;;;;;5122834;28;20440;-89
2021/11/10 07:10:57;;;;;;;25.03;19.80;;;3.40;99.90;;;;;;5121569;28;20449;-88
2021/11/10 07:13:25;;;;;;;28.70;19.30;;;3.50;99.90;;;;;;5135356;28;20507;-90
2021/11/10 07:15:52;;;;;;;43.67;20.50;;;3.60;99.90;;;;;;5129260;28;20460;-90
2021/11/10 07:18:19;;;;;;;29.70;18.60;;;3.60;99.90;;;;;;5121796;28;20477;-89
2021/11/10 07:20:45;;;;;;;21.50;18.20;;;3.70;99.90;;;;;;5118686;28;20449;-89
2021/11/10 07:23:12;;;;;;;34.57;21.07;;;3.80;99.90;;;;;;5129547;28;20433;-86
2021/11/10 07:25:39;;;;;;;28.47;20.17;;;3.90;99.90;;;;;;5132825;28;20813;-88
2021/11/10 07:28:07;;;;;;;31.40;22.40;;;3.90;99.90;;;;;;5123601;28;20453;-87
2021/11/10 07:30:36;;;;;;;26.80;20.30;;;4.00;99.90;;;;;;5138014;28;20442;-86
2021/11/10 07:33:03;;;;;;;20.97;17.93;;;4.20;99.90;;;;;;5140100;28;20448;-87
2021/11/10 07:35:30;;;;;;;32.33;20.90;;;4.30;99.90;;;;;;5137793;28;20601;-88
2021/11/10 07:37:56;;;;;;;24.13;19.40;;;4.40;99.90;;;;;;5132508;28;20473;-88
2021/11/10 07:40:24;;;;;;;29.87;19.93;;;4.40;99.90;;;;;;5134733;28;20434;-88
2021/11/10 07:42:51;;;;;;;25.83;20.03;;;4.50;99.90;;;;;;5137161;28;20441;-89
2021/11/10 07:45:21;;;;;;;25.00;21.63;;;4.50;99.90;;;;;;5125827;28;20441;-89
2021/11/10 07:47:52;;;;;;;24.40;18.30;;;4.60;99.90;;;;;;5124679;28;20464;-89
2021/11/10 07:50:21;;;;;;;25.37;18.77;;;4.70;99.90;;;;;;5126409;28;20769;-90
2021/11/10 07:52:48;;;;;;;25.07;18.97;;;4.70;99.90;;;;;;5120624;28;20446;-87
2021/11/10 07:55:15;;;;;;;33.50;20.97;;;4.70;99.90;;;;;;5117290;28;20480;-88
2021/11/10 07:57:42;;;;;;;26.23;19.27;;;4.80;99.90;;;;;;5118511;28;20466;-88
2021/11/10 08:00:13;;;;;;;28.27;22.50;;;4.80;99.90;;;;;;5118387;28;20449;-88
2021/11/10 08:02:41;;;;;;;22.63;18.40;;;4.90;99.90;;;;;;5122005;28;20465;-88
2021/11/10 08:05:09;;;;;;;26.20;20.40;;;5.00;99.90;;;;;;5120660;28;20448;-89
2021/11/10 08:07:36;;;;;;;26.63;17.80;;;5.10;99.90;;;;;;5121450;28;20483;-88
2021/11/10 08:10:06;;;;;;;28.10;19.30;;;5.30;99.90;;;;;;5128675;28;20442;-87
2021/11/10 08:12:36;;;;;;;23.63;18.20;;;5.40;99.90;;;;;;5125900;28;20427;-87
2021/11/10 08:15:04;;;;;;;23.73;19.17;;;5.50;99.90;;;;;;5115634;28;20561;-89
2021/11/10 08:17:30;;;;;;;25.87;18.97;;;5.60;99.90;;;;;;5109153;28;20469;-88
2021/11/10 08:19:58;;;;;;;30.60;23.20;;;5.80;99.90;;;;;;5105217;28;20442;-88
2021/11/10 08:22:25;;;;;;;25.43;21.30;;;5.90;99.90;;;;;;5120872;28;20433;-91
2021/11/10 08:24:52;;;;;;;27.77;18.40;;;6.00;99.90;;;;;;5116222;28;20442;-89
2021/11/10 08:27:19;;;;;;;22.57;18.67;;;6.10;99.90;;;;;;5117049;28;20477;-91
2021/11/10 08:29:46;;;;;;;25.37;18.87;;;6.20;99.90;;;;;;5111588;28;20485;-90
2021/11/10 08:32:13;;;;;;;24.70;19.50;;;6.20;99.90;;;;;;5103857;28;20441;-89
2021/11/10 08:34:40;;;;;;;28.07;20.10;;;6.30;99.90;;;;;;5106916;28;20422;-89
2021/11/10 08:37:08;;;;;;;24.73;20.13;;;6.30;99.90;;;;;;5117508;28;20470;-89
2021/11/10 08:39:34;;;;;;;25.67;19.33;;;6.40;99.90;;;;;;5125193;28;20438;-89
2021/11/10 08:42:03;;;;;;;29.07;21.30;;;6.50;99.90;;;;;;5114155;28;20446;-88
2021/11/10 08:44:35;;;;;;;27.53;20.80;;;6.60;99.90;;;;;;5105542;28;20452;-90
2021/11/10 08:47:02;;;;;;;27.80;20.20;;;6.60;99.90;;;;;;5105068;28;20480;-88
2021/11/10 08:49:32;;;;;;;24.67;20.17;;;6.70;99.90;;;;;;5119575;28;20434;-90
2021/11/10 08:51:59;;;;;;;28.67;21.87;;;6.90;99.90;;;;;;5114560;28;20426;-88
2021/11/10 08:54:27;;;;;;;28.33;21.07;;;7.00;99.90;;;;;;5109382;28;20445;-87
2021/11/10 08:56:54;;;;;;;27.50;19.80;;;7.10;99.90;;;;;;5110176;28;20485;-89
2021/11/10 08:59:21;;;;;;;23.97;19.00;;;7.20;99.90;;;;;;5116717;28;20458;-88
2021/11/10 09:01:49;;;;;;;21.77;18.70;;;7.10;99.90;;;;;;5111640;28;21029;-87
2021/11/10 09:04:17;;;;;;;29.43;20.43;;;7.00;99.90;;;;;;5114788;28;20438;-87
2021/11/10 09:06:44;;;;;;;23.67;19.27;;;6.90;99.90;;;;;;5100642;28;20527;-89
2021/11/10 09:09:11;;;;;;;27.53;21.90;;;6.70;99.90;;;;;;5105268;28;20445;-86
2021/11/10 09:11:39;;;;;;;22.87;17.70;;;6.70;99.90;;;;;;5103636;28;20446;-88
2021/11/10 09:14:27;;;;;;;23.57;20.20;;;6.70;99.90;;;;;;5108021;28;20831;-92
2021/11/10 09:16:54;;;;;;;27.67;19.20;;;6.70;99.90;;;;;;5111421;28;20521;-87
2021/11/10 09:19:25;;;;;;;22.03;19.67;;;6.60;99.90;;;;;;5107484;28;20460;-93
2021/11/10 09:21:52;;;;;;;33.60;19.77;;;6.70;99.90;;;;;;5108697;28;20438;-88
2021/11/10 09:24:19;;;;;;;28.87;18.93;;;6.80;99.90;;;;;;5106595;28;20444;-89
2021/11/10 09:26:49;;;;;;;25.60;20.80;;;6.90;99.90;;;;;;5107911;28;20454;-87
2021/11/10 09:29:19;;;;;;;21.80;17.23;;;6.90;99.90;;;;;;5105890;28;20441;-88
2021/11/10 09:31:46;;;;;;;25.03;19.40;;;7.10;99.90;;;;;;5111850;28;20496;-90
2021/11/10 09:34:14;;;;;;;26.83;20.63;;;7.10;99.90;;;;;;5130597;28;20433;-88
2021/11/10 09:36:46;;;;;;;24.37;20.60;;;7.10;99.90;;;;;;5124572;28;20477;-88
2021/11/10 09:39:14;;;;;;;23.80;19.27;;;7.10;99.90;;;;;;5120425;28;20434;-88
2021/11/10 09:41:42;;;;;;;24.00;20.23;;;7.20;99.90;;;;;;5121317;28;20427;-89
2021/11/10 09:44:10;;;;;;;24.93;20.43;;;7.20;99.90;;;;;;5105663;28;20434;-88
2021/11/10 09:46:39;;;;;;;27.80;19.53;;;7.20;99.90;;;;;;5116942;28;20521;-88
2021/11/10 09:49:13;;;;;;;25.90;21.20;;;7.20;99.90;;;;;;5114949;28;20445;-91
2021/11/10 09:51:40;;;;;;;26.53;22.30;;;7.20;99.90;;;;;;5123841;28;20422;-85
2021/11/10 09:54:09;;;;;;;27.27;21.07;;;7.20;99.90;;;;;;5128284;28;20941;-89
2021/11/10 09:56:37;;;;;;;31.80;22.40;;;7.20;99.90;;;;;;5124996;28;20485;-86
2021/11/10 09:59:06;;;;;;;25.47;22.07;;;7.20;99.90;;;;;;5121629;28;20437;-91
2021/11/10 10:01:37;;;;;;;29.83;24.00;;;7.20;99.90;;;;;;5120515;28;20446;-86
2021/11/10 10:04:05;;;;;;;29.33;24.63;;;7.30;99.90;;;;;;5122948;28;20455;-87
2021/11/10 10:06:33;;;;;;;29.67;23.27;;;7.40;99.90;;;;;;5115061;28;20458;-88
2021/11/10 10:09:00;;;;;;;30.90;24.50;;;7.50;99.90;;;;;;5125296;28;20426;-84
2021/11/10 10:11:28;;;;;;;32.97;23.10;;;7.60;99.90;;;;;;5119500;28;20525;-84
2021/11/10 10:13:58;;;;;;;28.67;23.90;;;7.60;99.90;;;;;;5115404;28;20442;-89
2021/11/10 10:16:27;;;;;;;30.33;22.10;;;7.70;99.90;;;;;;5115439;28;20537;-89
2021/11/10 10:19:07;;;;;;;37.53;24.60;;;7.80;99.90;;;;;;5118871;28;20422;-87
2021/11/10 10:21:34;;;;;;;31.87;24.70;;;7.70;99.90;;;;;;5118851;28;20445;-88
2021/11/10 10:24:05;;;;;;;31.20;25.00;;;7.70;99.90;;;;;;5116765;28;20430;-89
2021/11/10 10:26:32;;;;;;;32.80;23.40;;;7.70;99.90;;;;;;5116615;28;20526;-88
2021/11/10 10:29:05;;;;;;;32.57;22.90;;;7.70;99.90;;;;;;5125039;28;20478;-88
2021/11/10 10:31:33;;;;;;;28.37;22.53;;;7.80;99.90;;;;;;5128731;28;20438;-89
2021/11/10 10:34:02;;;;;;;27.77;23.37;;;7.90;99.90;;;;;;5118219;28;20904;-89
2021/11/10 10:36:35;;;;;;;28.20;21.50;;;8.00;99.90;;;;;;5119627;28;20473;-93
2021/11/10 10:39:06;;;;;;;26.17;21.17;;;8.00;99.90;;;;;;5116847;28;20445;-89
2021/11/10 10:41:35;;;;;;;31.07;22.87;;;8.10;99.90;;;;;;5115019;28;21857;-89
2021/11/10 10:44:05;;;;;;;28.83;21.77;;;8.70;99.90;;;;;;5116276;28;20439;-87
2021/11/10 10:46:37;;;;;;;30.63;20.73;;;9.20;99.90;;;;;;5125917;28;20494;-89
2021/11/10 10:49:15;;;;;;;30.37;22.83;;;9.90;99.90;;;;;;5110463;28;20447;-90
2021/11/10 10:51:45;;;;;;;26.47;20.90;;;10.00;99.90;;;;;;5113831;28;20446;-90
2021/11/10 10:54:12;;;;;;;23.60;21.00;;;9.70;99.90;;;;;;5112131;28;20445;-88
2021/11/10 10:56:42;;;;;;;24.70;21.33;;;9.60;99.90;;;;;;5112262;28;20473;-88
2021/11/10 10:59:12;;;;;;;24.40;20.03;;;9.40;99.90;;;;;;5120842;28;20465;-89
2021/11/10 11:01:41;;;;;;;22.57;20.27;;;9.50;99.90;;;;;;5114198;28;20508;-88
2021/11/10 11:04:10;;;;;;;23.90;21.10;;;9.50;99.90;;;;;;5114991;28;20532;-89
2021/11/10 11:06:39;;;;;;;22.30;19.80;;;9.60;99.90;;;;;;5115870;28;20461;-90
2021/11/10 11:09:14;;;;;;;35.97;24.20;;;9.60;99.90;;;;;;5122231;28;20422;-88
2021/11/10 11:11:56;;;;;;;25.13;19.60;;;9.90;99.90;;;;;;5117668;28;20449;-89
2021/11/10 11:14:38;;;;;;;20.53;18.40;;;10.10;99.20;;;;;;5115519;28;20442;-89
2021/11/10 11:17:20;;;;;;;24.60;20.83;;;10.10;99.20;;;;;;5117229;28;20478;-90
2021/11/10 11:19:49;;;;;;;25.73;22.63;;;10.20;99.20;;;;;;5109453;28;20938;-89
2021/11/10 11:22:16;;;;;;;24.53;22.00;;;10.20;99.00;;;;;;5113905;28;20430;-91
2021/11/10 11:24:46;;;;;;;30.60;22.80;;;10.00;99.10;;;;;;5113900;28;20450;-89
2021/11/10 11:27:23;;;;;;;27.77;21.67;;;10.00;99.70;;;;;;5113545;28;20459;-89
2021/11/10 11:30:00;;;;;;;28.20;22.47;;;10.30;99.40;;;;;;5108821;28;20840;-89
2021/11/10 11:32:29;;;;;;;35.30;24.73;;;10.80;98.50;;;;;;5113077;28;20445;-89
2021/11/10 11:35:00;;;;;;;27.27;23.20;;;11.60;98.00;;;;;;5124801;28;20449;-89
2021/11/10 11:37:31;;;;;;;29.33;24.77;;;12.10;96.30;;;;;;5133864;28;20480;-89
2021/11/10 11:40:05;;;;;;;29.07;23.37;;;12.90;95.30;;;;;;5127059;28;20450;-90
2021/11/10 11:42:32;;;;;;;29.40;24.20;;;13.70;92.80;;;;;;5114882;22;20501;-90
2021/11/10 11:44:59;;;;;;;28.40;23.20;;;13.70;91.70;;;;;;5109947;28;20443;-90
2021/11/10 11:47:26;;;;;;;28.50;25.10;;;13.80;90.60;;;;;;5109567;28;20447;-90
2021/11/10 11:49:54;;;;;;;31.13;24.60;;;13.60;91.00;;;;;;5123377;27;20493;-90
2021/11/10 11:52:28;;;;;;;29.87;21.80;;;13.60;91.00;;;;;;5114258;28;20941;-89
2021/11/10 11:54:58;;;;;;;27.23;23.00;;;13.30;91.00;;;;;;5123718;28;20506;-88
2021/11/10 11:57:28;;;;;;;29.13;24.87;;;12.80;91.20;;;;;;5113910;28;20481;-90
2021/11/10 11:59:58;;;;;;;25.97;22.90;;;12.40;91.70;;;;;;5107909;28;20450;-88
2021/11/10 12:02:28;;;;;;;30.07;23.37;;;12.20;92.40;;;;;;5117279;28;20498;-90
2021/11/10 12:04:57;;;;;;;27.00;22.97;;;12.10;92.90;;;;;;5099899;28;20443;-90
2021/11/10 12:07:45;;;;;;;28.80;24.73;;;12.00;93.00;;;;;;5105879;28;20484;-91
2021/11/10 12:10:39;;;;;;;27.17;22.30;;;11.80;93.00;;;;;;5112003;28;20438;-90
2021/11/10 12:13:11;;;;;;;25.90;22.50;;;11.40;93.50;;;;;;5113521;28;20526;-90
2021/11/10 12:16:27;;;;;;;28.73;22.60;;;11.30;94.30;;;;;;5122242;28;20437;-87
2021/11/10 12:18:59;;;;;;;26.73;21.93;;;11.40;94.50;;;;;;5109403;28;20480;-91
2021/11/10 12:21:48;;;;;;;26.40;23.63;;;11.80;94.50;;;;;;5110323;28;20430;-90
2021/11/10 12:24:28;;;;;;;25.83;23.03;;;11.60;93.80;;;;;;5102573;28;20969;-91
2021/11/10 12:27:37;;;;;;;31.50;23.40;;;11.50;94.30;;;;;;5101969;28;20427;-91
2021/11/10 12:30:15;;;;;;;28.07;21.73;;;12.00;94.40;;;;;;5072903;28;20455;-90
2021/11/10 12:32:53;;;;;;;24.10;21.53;;;13.20;93.50;;;;;;5105345;28;20533;-89
2021/11/10 12:35:31;;;;;;;24.13;20.20;;;13.60;90.80;;;;;;5101242;28;20450;-89
2021/11/10 12:38:02;;;;;;;26.43;21.63;;;13.50;90.60;;;;;;5099874;28;20482;-90
2021/11/10 12:40:32;;;;;;;24.13;21.67;;;13.40;91.00;;;;;;5101512;28;20448;-90
2021/11/10 12:43:13;;;;;;;26.37;21.90;;;13.20;91.20;;;;;;5115776;28;20464;-90
2021/11/10 12:45:43;;;;;;;24.80;20.80;;;12.70;91.70;;;;;;5098148;28;20483;-88
2021/11/10 12:48:27;;;;;;;26.63;23.40;;;12.40;92.00;;;;;;5123763;28;20433;-89
2021/11/10 12:50:55;;;;;;;25.30;20.73;;;12.10;92.50;;;;;;5123424;28;20433;-90
2021/11/10 12:53:38;;;;;;;27.57;21.50;;;11.80;93.00;;;;;;5126440;28;20531;-90
2021/11/10 12:56:06;;;;;;;25.77;21.27;;;11.80;93.60;;;;;;5126004;28;20517;-89
2021/11/10 12:58:34;;;;;;;25.50;21.67;;;11.50;93.40;;;;;;5125421;28;20461;-90